Time;durP1;ratioP1;P1;durP2;ratioP2;P2;SDS_P1;SDS_P2;PMS_P1;PMS_P2;Temp;Humidity;BMP_temperature;BMP_pressure;BME280_temperature;BME280_humidity;BME280_pressure;Samples;Min_cycle;Max_cycle;Signal;HPM_P1;HPM_P2
2022/04/02 00:01:41;;;;;;;7.20;2.60;;;3.90;95.80;;;;;;5115660;28;20051;-77
2022/04/02 00:04:08;;;;;;;5.15;2.13;;;3.80;95.80;;;;;;5115611;28;20040;-78
2022/04/02 00:06:34;;;;;;;5.72;2.35;;;3.70;95.90;;;;;;5115869;28;20441;-78
2022/04/02 00:09:00;;;;;;;3.30;1.98;;;3.80;95.90;;;;;;5115353;28;20043;-77
2022/04/02 00:11:26;;;;;;;4.30;2.20;;;3.70;95.80;;;;;;5115370;28;20387;-78
2022/04/02 00:13:52;;;;;;;5.07;2.40;;;3.70;96.00;;;;;;5115415;28;20047;-78
2022/04/02 00:16:17;;;;;;;7.10;2.03;;;3.70;96.00;;;;;;5115399;28;20044;-78
2022/04/02 00:18:44;;;;;;;4.63;2.03;;;3.60;95.90;;;;;;5114881;28;20386;-78
2022/04/02 00:21:10;;;;;;;6.38;2.20;;;3.70;96.00;;;;;;5115643;27;20055;-76
2022/04/02 00:23:39;;;;;;;5.38;2.13;;;3.70;96.10;;;;;;5118644;27;20058;-77
2022/04/02 00:26:17;;;;;;;3.58;2.03;;;3.70;96.10;;;;;;5118273;27;20040;-78
2022/04/02 00:28:44;;;;;;;6.05;2.40;;;3.70;96.00;;;;;;5118362;27;20439;-78
2022/04/02 00:31:12;;;;;;;5.50;2.00;;;3.70;95.90;;;;;;5117959;27;20051;-78
2022/04/02 00:33:39;;;;;;;4.55;2.08;;;3.70;95.90;;;;;;5118207;27;20054;-78
2022/04/02 00:36:05;;;;;;;5.55;2.10;;;3.80;95.90;;;;;;5117474;27;20093;-78
2022/04/02 00:38:32;;;;;;;10.82;2.42;;;3.80;95.90;;;;;;5117941;27;20043;-78
2022/04/02 00:40:58;;;;;;;3.67;2.08;;;3.80;95.80;;;;;;5100862;27;20058;-78
2022/04/02 00:43:29;;;;;;;5.57;2.30;;;3.70;95.80;;;;;;5100885;27;20382;-78
2022/04/02 00:45:56;;;;;;;6.60;2.13;;;3.70;95.70;;;;;;5118154;27;20051;-78
2022/04/02 00:48:23;;;;;;;5.88;2.33;;;3.60;96.00;;;;;;5117703;27;20054;-78
2022/04/02 00:50:55;;;;;;;6.43;2.20;;;3.60;96.00;;;;;;5117707;27;20424;-78
2022/04/02 00:53:25;;;;;;;6.55;1.77;;;3.70;96.10;;;;;;5117795;27;20043;-78
2022/04/02 00:55:51;;;;;;;5.70;2.35;;;3.70;95.90;;;;;;5101813;27;20047;-78
2022/04/02 00:58:17;;;;;;;3.83;1.95;;;3.70;96.00;;;;;;5117932;27;20058;-78
2022/04/02 01:00:44;;;;;;;7.53;2.65;;;3.70;96.00;;;;;;5100879;27;20051;-78
2022/04/02 01:03:11;;;;;;;5.60;2.50;;;3.60;96.00;;;;;;5117758;27;20047;-78
2022/04/02 01:05:38;;;;;;;5.72;2.13;;;3.70;96.00;;;;;;5117523;27;20047;-78
2022/04/02 01:08:05;;;;;;;3.67;2.13;;;3.60;96.00;;;;;;5100687;27;20051;-78
2022/04/02 01:10:36;;;;;;;6.03;2.22;;;3.70;96.00;;;;;;5117227;27;20043;-77
2022/04/02 01:13:02;;;;;;;3.60;2.10;;;3.70;95.90;;;;;;5117616;27;20096;-77
2022/04/02 01:15:28;;;;;;;6.22;2.05;;;3.70;95.80;;;;;;5117617;27;20039;-78
2022/04/02 01:17:54;;;;;;;6.65;2.30;;;3.70;96.00;;;;;;5117038;27;20062;-78
2022/04/02 01:20:22;;;;;;;6.20;2.50;;;3.70;96.10;;;;;;5100239;27;20080;-78
2022/04/02 01:22:48;;;;;;;5.40;2.42;;;3.70;96.00;;;;;;5116693;27;20054;-78
2022/04/02 01:25:14;;;;;;;7.97;2.90;;;3.70;96.00;;;;;;5117395;27;20490;-78
2022/04/02 01:27:40;;;;;;;6.47;2.40;;;3.70;96.00;;;;;;5117418;27;20051;-78
2022/04/02 01:30:06;;;;;;;6.20;2.40;;;3.60;96.00;;;;;;5100735;27;20397;-78
2022/04/02 01:32:33;;;;;;;8.77;3.33;;;3.60;96.10;;;;;;5117238;27;20043;-78
2022/04/02 01:34:59;;;;;;;4.07;2.47;;;3.70;96.20;;;;;;5117694;27;20085;-78
2022/04/02 01:37:25;;;;;;;8.27;2.17;;;3.70;96.20;;;;;;5116872;27;20051;-78
2022/04/02 01:39:51;;;;;;;6.05;2.30;;;3.70;96.00;;;;;;5099937;27;20043;-78
2022/04/02 01:42:24;;;;;;;7.65;2.28;;;3.70;96.20;;;;;;5116936;27;20126;-78
2022/04/02 01:44:51;;;;;;;5.55;2.33;;;3.60;96.00;;;;;;5117098;27;20054;-78
2022/04/02 01:47:21;;;;;;;7.68;2.50;;;3.70;96.20;;;;;;5116080;27;20502;-78
2022/04/02 01:49:48;;;;;;;4.30;1.95;;;3.70;96.30;;;;;;5116627;27;20053;-78
2022/04/02 01:52:19;;;;;;;5.18;2.20;;;3.60;96.10;;;;;;5117186;27;20078;-78
2022/04/02 01:54:49;;;;;;;7.28;1.98;;;3.60;96.20;;;;;;5135080;27;20051;-78
2022/04/02 01:57:16;;;;;;;6.43;2.17;;;3.50;96.20;;;;;;5116878;27;20051;-78
2022/04/02 01:59:44;;;;;;;8.55;2.47;;;3.50;96.30;;;;;;5083245;27;20043;-78
2022/04/02 02:02:10;;;;;;;5.65;2.20;;;3.50;96.30;;;;;;5116902;27;20054;-78
2022/04/02 02:04:37;;;;;;;7.30;2.72;;;3.50;96.40;;;;;;5117050;27;20043;-78
2022/04/02 02:07:04;;;;;;;4.43;1.90;;;3.50;96.30;;;;;;5117575;27;20050;-78
2022/04/02 02:09:30;;;;;;;5.90;1.88;;;3.50;96.40;;;;;;5116821;28;20529;-77
2022/04/02 02:11:56;;;;;;;5.15;1.98;;;3.60;96.50;;;;;;5099825;27;20173;-78
2022/04/02 02:14:22;;;;;;;6.30;1.90;;;3.50;96.50;;;;;;5116814;27;20088;-78
2022/04/02 02:16:48;;;;;;;6.60;2.03;;;3.50;96.40;;;;;;5116137;27;20078;-78
2022/04/02 02:19:14;;;;;;;6.30;2.10;;;3.50;96.40;;;;;;5116504;28;20050;-78
2022/04/02 02:21:39;;;;;;;6.05;2.13;;;3.40;96.40;;;;;;5116087;28;20050;-77
2022/04/02 02:24:06;;;;;;;7.65;2.75;;;3.40;96.60;;;;;;5116892;28;20047;-77
2022/04/02 02:26:32;;;;;;;4.03;1.92;;;3.40;96.60;;;;;;5116544;28;20111;-77
2022/04/02 02:28:58;;;;;;;5.07;2.03;;;3.30;96.70;;;;;;5116480;28;20044;-78
2022/04/02 02:31:24;;;;;;;4.53;1.85;;;3.30;96.70;;;;;;5099227;28;20047;-77
2022/04/02 02:36:34;;;;;;;4.43;1.80;;;3.30;96.70;;;;;;5116662;28;20547;-78
2022/04/02 02:39:00;;;;;;;5.68;2.25;;;3.30;96.70;;;;;;5116998;28;20055;-78
2022/04/02 02:41:25;;;;;;;3.72;2.13;;;3.20;96.70;;;;;;5116566;28;20426;-78
2022/04/02 02:43:51;;;;;;;5.40;2.42;;;3.30;96.80;;;;;;5116432;28;20047;-77
2022/04/02 02:46:17;;;;;;;9.05;3.13;;;3.30;96.70;;;;;;5082657;28;20058;-78
2022/04/02 02:48:47;;;;;;;6.45;2.90;;;3.30;96.70;;;;;;5115994;28;20050;-78
2022/04/02 02:51:13;;;;;;;6.65;2.42;;;3.40;96.70;;;;;;5098791;28;20054;-77
2022/04/02 02:53:39;;;;;;;7.45;2.83;;;3.30;96.50;;;;;;5099344;28;20051;-77
2022/04/02 02:56:05;;;;;;;6.20;2.80;;;3.40;96.50;;;;;;5116231;28;20047;-77
2022/04/02 02:58:31;;;;;;;6.40;2.63;;;3.40;96.50;;;;;;5115935;27;20055;-77
2022/04/02 03:00:57;;;;;;;5.60;2.45;;;3.40;96.50;;;;;;5102722;27;20104;-77
2022/04/02 03:03:23;;;;;;;5.20;2.42;;;3.30;96.50;;;;;;5120164;27;20386;-77
2022/04/02 03:05:49;;;;;;;5.78;1.98;;;3.30;96.60;;;;;;5103389;27;20051;-77
2022/04/02 03:08:18;;;;;;;6.82;2.30;;;3.30;96.70;;;;;;5120066;27;20054;-77
2022/04/02 03:10:46;;;;;;;6.78;2.80;;;3.30;96.90;;;;;;5119807;27;20039;-77
2022/04/02 03:13:12;;;;;;;4.18;1.73;;;3.20;96.80;;;;;;5120527;27;20062;-77
2022/04/02 03:15:38;;;;;;;4.60;1.95;;;3.30;96.70;;;;;;5119717;27;20047;-77
2022/04/02 03:18:06;;;;;;;4.82;2.28;;;3.30;96.90;;;;;;5119250;27;20133;-77
2022/04/02 03:20:32;;;;;;;5.30;2.00;;;3.30;96.80;;;;;;5102942;27;20057;-77
2022/04/02 03:22:58;;;;;;;5.38;1.75;;;3.30;96.70;;;;;;5119282;27;20436;-77
2022/04/02 03:25:24;;;;;;;6.25;2.22;;;3.30;96.90;;;;;;5119538;27;20054;-77
2022/04/02 03:27:49;;;;;;;3.92;1.70;;;3.30;96.70;;;;;;5120524;27;20133;-77
2022/04/02 03:30:18;;;;;;;5.28;1.60;;;3.30;96.80;;;;;;5119580;27;20039;-77
2022/04/02 03:32:46;;;;;;;4.47;1.63;;;3.30;96.80;;;;;;5119586;27;20051;-77
2022/04/02 03:35:14;;;;;;;8.80;1.63;;;3.30;96.70;;;;;;5119927;27;20046;-77
2022/04/02 03:37:41;;;;;;;6.95;1.83;;;3.40;96.80;;;;;;5102595;27;20055;-77
2022/04/02 03:40:09;;;;;;;3.67;1.70;;;3.40;96.80;;;;;;5119616;27;20050;-77
2022/04/02 03:42:36;;;;;;;5.55;1.63;;;3.40;96.70;;;;;;5119172;27;20055;-77
2022/04/02 03:45:02;;;;;;;5.38;1.65;;;3.30;96.70;;;;;;5119106;27;20050;-77
2022/04/02 03:47:28;;;;;;;4.85;1.40;;;3.30;96.60;;;;;;5118934;27;20051;-77
2022/04/02 03:49:53;;;;;;;5.10;1.83;;;3.30;96.70;;;;;;5119421;27;20050;-77
2022/04/02 03:52:19;;;;;;;7.57;2.05;;;3.30;96.80;;;;;;5119277;27;20039;-77
2022/04/02 03:54:45;;;;;;;3.40;1.45;;;3.30;96.90;;;;;;5118955;27;20051;-77
2022/04/02 03:57:12;;;;;;;4.47;1.35;;;3.30;96.90;;;;;;5119174;27;20046;-77
2022/04/02 03:59:40;;;;;;;3.90;1.55;;;3.40;96.80;;;;;;5118745;27;20059;-77
2022/04/02 04:02:07;;;;;;;3.63;1.50;;;3.40;96.70;;;;;;5118813;27;20127;-77
2022/04/02 04:04:33;;;;;;;3.55;1.75;;;3.30;96.80;;;;;;5119603;27;20390;-77
2022/04/02 04:06:59;;;;;;;6.35;1.80;;;3.30;96.80;;;;;;5118964;27;20035;-77
2022/04/02 04:09:25;;;;;;;5.55;1.85;;;3.30;96.70;;;;;;5118864;27;20089;-77
2022/04/02 04:11:50;;;;;;;3.97;1.40;;;3.20;96.80;;;;;;5117754;27;20083;-76
2022/04/02 04:14:17;;;;;;;7.13;1.75;;;3.30;96.90;;;;;;5118844;27;20542;-77
2022/04/02 04:16:43;;;;;;;5.70;1.60;;;3.30;96.70;;;;;;5118433;27;20494;-78
2022/04/02 04:19:09;;;;;;;3.60;1.85;;;3.30;96.70;;;;;;5084812;27;20097;-77
2022/04/02 04:21:35;;;;;;;4.68;1.80;;;3.30;96.70;;;;;;5101217;27;20086;-76
2022/04/02 04:24:03;;;;;;;6.22;1.50;;;3.30;96.70;;;;;;5118904;27;20081;-77
2022/04/02 04:26:29;;;;;;;4.50;1.65;;;3.30;96.80;;;;;;5118368;27;20082;-76
2022/04/02 04:28:54;;;;;;;6.13;1.80;;;3.40;96.80;;;;;;5119000;27;20439;-77
2022/04/02 04:31:20;;;;;;;5.93;1.58;;;3.30;96.70;;;;;;5118302;27;20043;-77
2022/04/02 04:33:47;;;;;;;4.88;1.38;;;3.30;96.80;;;;;;5101212;27;20394;-77
2022/04/02 04:36:13;;;;;;;9.20;1.60;;;3.40;96.80;;;;;;5118738;27;20062;-77
2022/04/02 04:38:39;;;;;;;9.88;1.90;;;3.40;96.80;;;;;;5118151;27;20512;-77
2022/04/02 04:41:04;;;;;;;5.38;1.30;;;3.40;96.90;;;;;;5118288;27;20095;-77
2022/04/02 04:43:30;;;;;;;8.57;1.65;;;3.40;96.80;;;;;;5118252;27;20039;-77
2022/04/02 04:45:57;;;;;;;5.97;1.38;;;3.50;96.80;;;;;;5136347;27;20130;-77
2022/04/02 04:48:23;;;;;;;2.47;1.10;;;3.50;96.90;;;;;;5117949;27;20051;-77
2022/04/02 04:50:48;;;;;;;6.55;1.63;;;3.50;96.80;;;;;;5117873;27;20497;-77
2022/04/02 04:53:14;;;;;;;7.07;1.90;;;3.60;96.80;;;;;;5118126;27;20055;-77
2022/04/02 04:55:40;;;;;;;5.15;1.48;;;3.60;96.60;;;;;;5118086;27;20097;-77
2022/04/02 04:58:07;;;;;;;3.58;1.58;;;3.70;96.60;;;;;;5118123;27;20051;-77
2022/04/02 05:00:33;;;;;;;6.97;1.58;;;3.60;96.50;;;;;;5117859;27;20482;-76
2022/04/02 05:02:59;;;;;;;4.40;1.67;;;3.60;96.60;;;;;;5117852;27;20051;-77
2022/04/02 05:05:27;;;;;;;6.15;1.92;;;3.60;96.70;;;;;;5100569;27;20058;-77
2022/04/02 05:07:53;;;;;;;4.25;1.58;;;3.70;96.60;;;;;;5118586;27;20109;-77
2022/04/02 05:10:20;;;;;;;4.68;1.50;;;3.70;96.80;;;;;;5117520;27;20074;-76
2022/04/02 05:12:45;;;;;;;5.90;1.80;;;3.70;96.80;;;;;;5117422;27;20546;-77
2022/04/02 05:15:12;;;;;;;3.58;1.83;;;3.80;96.80;;;;;;5100324;27;20039;-77
2022/04/02 05:17:39;;;;;;;6.68;2.00;;;3.90;96.80;;;;;;5099911;27;20054;-77
2022/04/02 05:20:06;;;;;;;7.00;1.73;;;3.90;96.70;;;;;;5117580;27;20549;-76
2022/04/02 05:22:32;;;;;;;8.00;1.58;;;3.90;96.60;;;;;;5116870;27;20521;-76
2022/04/02 05:24:58;;;;;;;4.72;1.75;;;3.90;96.80;;;;;;5100396;27;20055;-77
2022/04/02 05:27:28;;;;;;;7.20;2.10;;;3.90;96.60;;;;;;5100127;27;20051;-77
2022/04/02 05:29:54;;;;;;;6.03;1.52;;;3.90;96.60;;;;;;5117267;27;20106;-77
2022/04/02 05:32:20;;;;;;;5.70;2.13;;;3.90;96.60;;;;;;5100152;27;20135;-77
2022/04/02 05:34:46;;;;;;;6.38;1.75;;;3.90;96.60;;;;;;5117008;27;20474;-77
2022/04/02 05:37:12;;;;;;;7.25;1.63;;;3.90;96.60;;;;;;5117358;27;20157;-77
2022/04/02 05:39:37;;;;;;;8.60;2.15;;;3.90;96.60;;;;;;5117161;27;20057;-77
2022/04/02 05:42:05;;;;;;;6.53;1.88;;;4.00;96.70;;;;;;5100471;27;20393;-77
2022/04/02 05:44:31;;;;;;;7.32;2.13;;;4.00;96.70;;;;;;5117120;27;20466;-77
2022/04/02 05:46:57;;;;;;;3.92;1.83;;;4.10;96.60;;;;;;5116346;27;20043;-77
2022/04/02 05:49:23;;;;;;;6.63;1.75;;;4.10;96.60;;;;;;5116951;27;20047;-77
2022/04/02 05:51:49;;;;;;;5.68;1.90;;;4.10;96.70;;;;;;5117114;27;20080;-77
2022/04/02 05:54:15;;;;;;;9.15;1.80;;;4.10;96.80;;;;;;5116917;27;20497;-76
2022/04/02 05:56:41;;;;;;;7.07;1.98;;;4.20;96.80;;;;;;5117212;27;20081;-77
2022/04/02 05:59:07;;;;;;;7.07;1.95;;;4.30;96.80;;;;;;5116870;27;20088;-77
2022/04/02 06:01:35;;;;;;;5.25;1.83;;;4.30;96.80;;;;;;5116946;27;20127;-77
2022/04/02 06:04:01;;;;;;;5.10;2.10;;;4.40;96.70;;;;;;5116770;27;20090;-77
2022/04/02 06:06:26;;;;;;;5.40;1.85;;;4.40;96.60;;;;;;5116752;27;20082;-76
2022/04/02 06:08:52;;;;;;;6.15;2.03;;;4.60;96.70;;;;;;5116582;27;20045;-77
2022/04/02 06:11:18;;;;;;;5.45;2.13;;;4.70;96.80;;;;;;5116438;27;20519;-76
2022/04/02 06:13:43;;;;;;;6.40;2.42;;;4.80;96.50;;;;;;5116590;27;20039;-76
2022/04/02 06:16:09;;;;;;;5.40;2.00;;;4.80;96.40;;;;;;5116387;28;20082;-77
2022/04/02 06:18:35;;;;;;;4.68;1.83;;;4.60;96.40;;;;;;5116290;27;20054;-76
2022/04/02 06:21:03;;;;;;;4.60;1.60;;;4.40;96.30;;;;;;5116545;28;20043;-76
2022/04/02 06:23:29;;;;;;;4.72;1.88;;;4.50;96.40;;;;;;5135079;27;20184;-76
2022/04/02 06:25:55;;;;;;;7.78;1.58;;;4.50;96.20;;;;;;5099783;28;20461;-76
2022/04/02 06:28:21;;;;;;;5.88;1.60;;;4.60;95.90;;;;;;5116540;28;20075;-76
2022/04/02 06:30:47;;;;;;;3.50;1.17;;;4.70;95.80;;;;;;5116725;28;20043;-76
2022/04/02 06:33:12;;;;;;;4.03;1.30;;;4.80;95.20;;;;;;5116432;27;20124;-76
2022/04/02 06:35:38;;;;;;;4.35;1.70;;;4.80;95.10;;;;;;5119658;27;20082;-76
2022/04/02 06:38:04;;;;;;;3.50;1.20;;;4.70;94.90;;;;;;5120639;27;20043;-76
2022/04/02 06:40:30;;;;;;;4.80;1.50;;;4.80;95.00;;;;;;5138908;27;20130;-77
2022/04/02 06:42:57;;;;;;;7.97;1.55;;;4.90;94.90;;;;;;5120273;27;20417;-73
2022/04/02 06:45:23;;;;;;;5.40;1.55;;;5.00;94.50;;;;;;5120572;27;20100;-74
2022/04/02 06:47:49;;;;;;;4.30;1.60;;;5.10;94.70;;;;;;5103549;27;20050;-75
2022/04/02 06:50:15;;;;;;;6.05;1.77;;;5.10;94.50;;;;;;5125233;27;20134;-73
2022/04/02 06:52:42;;;;;;;3.55;1.25;;;5.00;95.10;;;;;;5124530;27;20043;-73
2022/04/02 06:55:08;;;;;;;3.17;1.20;;;5.00;94.60;;;;;;5103388;27;20127;-74
2022/04/02 06:57:43;;;;;;;6.03;1.50;;;5.00;94.20;;;;;;5120061;27;20050;-73
2022/04/02 07:00:11;;;;;;;3.17;1.50;;;5.00;94.60;;;;;;5103349;27;20092;-73
2022/04/02 07:02:37;;;;;;;6.38;1.65;;;5.10;94.40;;;;;;5120313;27;20050;-73
2022/04/02 07:05:04;;;;;;;5.18;1.40;;;5.30;94.30;;;;;;5120118;27;20047;-74
2022/04/02 07:07:30;;;;;;;6.40;1.60;;;5.40;94.30;;;;;;5120116;27;20058;-74
2022/04/02 07:09:56;;;;;;;6.90;1.30;;;5.40;93.90;;;;;;5102938;27;20428;-74
2022/04/02 07:12:22;;;;;;;4.88;1.38;;;5.40;93.80;;;;;;5120904;27;20130;-75
2022/04/02 07:14:48;;;;;;;5.18;1.92;;;5.30;93.90;;;;;;5121987;27;20079;-74
2022/04/02 07:17:14;;;;;;;5.43;1.40;;;5.30;94.60;;;;;;5103410;27;20046;-74
2022/04/02 07:19:41;;;;;;;6.57;1.65;;;5.00;94.80;;;;;;5119745;27;20493;-77
2022/04/02 07:22:11;;;;;;;3.55;1.10;;;4.70;95.30;;;;;;5102708;27;20055;-75
2022/04/02 07:24:40;;;;;;;2.53;1.13;;;4.70;94.90;;;;;;5119924;27;20050;-72
2022/04/02 07:27:07;;;;;;;7.20;1.60;;;4.90;94.90;;;;;;5102744;27;20053;-70
2022/04/02 07:29:33;;;;;;;2.67;1.10;;;4.80;94.70;;;;;;5119723;27;20070;-71
2022/04/02 07:32:00;;;;;;;3.42;1.50;;;4.60;94.80;;;;;;5102507;27;20055;-72
2022/04/02 07:34:26;;;;;;;3.60;1.20;;;4.70;94.80;;;;;;5119392;27;20047;-71
2022/04/02 07:37:05;;;;;;;4.22;1.20;;;4.60;94.90;;;;;;5119631;27;20073;-78
2022/04/02 07:39:48;;;;;;;3.47;1.20;;;4.70;95.00;;;;;;5119533;27;20054;-76
2022/04/02 07:42:32;;;;;;;2.38;1.30;;;4.80;94.80;;;;;;5119577;27;20047;-76
2022/04/02 07:45:06;;;;;;;3.45;1.20;;;4.90;94.70;;;;;;5119302;27;20047;-76
2022/04/02 07:47:37;;;;;;;3.88;1.10;;;5.00;94.70;;;;;;5119185;27;20135;-76
2022/04/02 07:50:09;;;;;;;3.60;1.15;;;5.10;94.60;;;;;;5119246;27;20517;-76
2022/04/02 07:52:39;;;;;;;2.85;1.10;;;5.10;94.60;;;;;;5119468;27;20138;-77
2022/04/02 07:55:08;;;;;;;3.38;1.40;;;5.20;94.90;;;;;;5118978;27;20504;-76
2022/04/02 07:57:39;;;;;;;3.45;1.38;;;5.10;94.80;;;;;;5119167;27;20058;-76
2022/04/02 08:00:06;;;;;;;4.38;1.20;;;5.10;94.90;;;;;;5119145;27;20402;-76
2022/04/02 08:02:39;;;;;;;3.47;1.20;;;5.20;95.20;;;;;;5119195;27;20043;-76
2022/04/02 08:05:15;;;;;;;3.65;1.13;;;5.10;95.10;;;;;;5102558;27;20050;-76
2022/04/02 08:07:49;;;;;;;;;;;5.20;94.90;;;;;;5102750;27;20043;-76
2022/04/02 08:10:19;;;;;;;4.60;1.23;;;5.30;94.80;;;;;;5118581;27;19923;-77
2022/04/02 08:12:45;;;;;;;4.75;1.52;;;5.40;94.70;;;;;;5118805;27;20481;-77
2022/04/02 08:15:17;;;;;;;5.38;1.20;;;5.70;94.70;;;;;;5118888;27;20067;-76
2022/04/02 08:17:45;;;;;;;2.67;1.08;;;5.80;94.60;;;;;;5118442;27;20127;-77
2022/04/02 08:20:15;;;;;;;2.38;0.95;;;5.70;94.50;;;;;;5118534;27;20051;-77
2022/04/02 08:22:42;;;;;;;5.18;1.17;;;5.80;94.40;;;;;;5118274;27;20444;-77
2022/04/02 08:25:08;;;;;;;4.03;1.00;;;5.80;94.70;;;;;;5102054;27;20402;-77
2022/04/02 08:27:54;;;;;;;7.75;1.10;;;6.00;94.70;;;;;;5118256;27;20047;-77
2022/04/02 08:30:41;;;;;;;;;;;6.20;94.70;;;;;;5118961;27;20054;-77
2022/04/02 08:33:18;;;;;;;2.67;0.90;;;6.30;94.50;;;;;;5118101;27;19944;-77
2022/04/02 08:36:06;;;;;;;4.45;0.80;;;6.30;94.20;;;;;;5118558;27;20103;-77
2022/04/02 08:38:50;;;;;;;3.05;0.80;;;6.30;94.00;;;;;;5118499;27;20138;-77
2022/04/02 08:41:22;;;;;;;4.13;1.17;;;6.30;94.00;;;;;;5118325;27;20502;-77
2022/04/02 08:44:15;;;;;;;5.82;1.20;;;6.30;93.50;;;;;;5118919;27;20057;-77
2022/04/02 08:46:53;;;;;;;7.00;1.10;;;6.40;93.40;;;;;;5118268;27;20047;-77
2022/04/02 08:49:47;;;;;;;3.40;0.80;;;6.50;93.00;;;;;;5117698;27;20047;-77
2022/04/02 08:52:33;;;;;;;6.05;0.80;;;6.70;92.90;;;;;;5118371;27;20085;-77
2022/04/02 08:55:13;;;;;;;4.40;1.00;;;6.60;92.50;;;;;;5118108;27;20042;-77
2022/04/02 08:57:42;;;;;;;3.95;0.80;;;6.60;93.00;;;;;;5117607;27;20043;-77
2022/04/02 09:00:09;;;;;;;5.15;1.10;;;6.50;92.80;;;;;;5117949;27;20043;-77
2022/04/02 09:02:53;;;;;;;5.68;1.58;;;6.50;92.80;;;;;;5117505;27;20051;-77
2022/04/02 09:05:27;;;;;;;4.40;0.80;;;6.80;92.90;;;;;;5117501;27;20563;-77
2022/04/02 09:08:32;;;;;;;9.43;1.20;;;6.90;93.00;;;;;;5118018;27;20057;-77
2022/04/02 09:11:07;;;;;;;3.03;1.05;;;7.10;92.90;;;;;;5116295;27;20048;-77
2022/04/02 09:13:42;;;;;;;7.10;0.95;;;7.10;92.20;;;;;;5117443;27;20051;-77
2022/04/02 09:16:10;;;;;;;4.57;1.00;;;7.20;92.40;;;;;;5118082;27;20100;-77
2022/04/02 09:18:46;;;;;;;5.65;1.10;;;7.50;92.20;;;;;;5100555;27;20058;-77
2022/04/02 09:21:26;;;;;;;6.28;1.00;;;7.80;92.00;;;;;;5118020;27;20119;-77
2022/04/02 09:24:07;;;;;;;6.10;1.00;;;7.70;91.50;;;;;;5117952;27;20435;-77
2022/04/02 09:27:11;;;;;;;4.15;1.15;;;7.40;91.10;;;;;;5116950;27;20054;-78
2022/04/02 09:29:59;;;;;;;3.15;1.00;;;7.20;91.20;;;;;;5117315;27;20130;-77
2022/04/02 09:32:43;;;;;;;4.70;0.98;;;7.20;91.40;;;;;;5117219;27;20130;-77
2022/04/02 09:35:23;;;;;;;4.40;1.15;;;7.60;91.50;;;;;;5117282;27;20047;-77
2022/04/02 09:37:55;;;;;;;3.08;0.90;;;7.80;91.20;;;;;;5100221;27;20508;-78
2022/04/02 09:40:33;;;;;;;6.07;1.00;;;7.90;91.30;;;;;;5117306;27;20047;-77
2022/04/02 09:43:05;;;;;;;3.17;0.80;;;7.70;91.10;;;;;;5117410;27;20053;-77
2022/04/02 09:45:40;;;;;;;3.97;0.90;;;7.50;91.40;;;;;;5117150;27;20080;-77
2022/04/02 09:48:27;;;;;;;2.72;0.85;;;7.50;91.30;;;;;;5116820;27;20104;-77
2022/04/02 09:50:59;;;;;;;3.15;1.00;;;7.30;91.50;;;;;;5099931;27;20420;-77
2022/04/02 09:53:32;;;;;;;3.72;0.80;;;7.10;91.50;;;;;;5116700;27;20129;-77
2022/04/02 09:56:27;;;;;;;2.60;0.70;;;7.00;91.40;;;;;;5116666;28;20456;-77
2022/04/02 09:59:04;;;;;;;3.55;1.10;;;7.10;91.50;;;;;;5117441;27;20050;-77
2022/04/02 10:01:55;;;;;;;7.25;1.15;;;7.10;91.90;;;;;;5116916;28;20474;-77
2022/04/02 10:04:42;;;;;;;3.42;1.27;;;7.00;91.80;;;;;;5117441;27;20398;-77
2022/04/02 10:07:25;;;;;;;4.82;1.10;;;7.00;92.20;;;;;;5117142;27;20078;-78
2022/04/02 10:09:55;;;;;;;3.45;1.00;;;7.10;91.90;;;;;;5116009;27;20039;-78
2022/04/02 10:12:24;;;;;;;7.03;1.10;;;7.20;92.10;;;;;;5116808;27;20054;-78
2022/04/02 10:14:56;;;;;;;4.82;1.02;;;7.10;92.10;;;;;;5116737;27;20055;-77
2022/04/02 10:17:28;;;;;;;11.05;1.25;;;7.30;92.30;;;;;;5116580;27;20055;-78
2022/04/02 10:19:57;;;;;;;4.40;1.05;;;7.30;92.10;;;;;;5117061;28;20402;-77
2022/04/02 10:22:34;;;;;;;5.50;1.10;;;7.20;91.90;;;;;;5116399;28;20134;-78
2022/04/02 10:25:04;;;;;;;5.97;1.38;;;7.10;92.10;;;;;;5099433;28;20059;-77
2022/04/02 10:27:38;;;;;;;3.85;1.10;;;7.10;92.30;;;;;;5117372;28;20047;-77
2022/04/02 10:30:08;;;;;;;5.55;0.82;;;6.90;92.20;;;;;;5116389;28;20039;-77
2022/04/02 10:33:26;;;;;;;5.68;1.20;;;6.90;91.60;;;;;;5116228;28;20478;-78
2022/04/02 10:35:46;;;;;;;3.40;1.05;;;6.80;91.80;;;;;;5116412;28;20054;-77
2022/04/02 10:38:38;;;;;;;4.10;1.08;;;6.90;92.00;;;;;;5116479;28;20436;-77
2022/04/02 10:41:18;;;;;;;5.72;0.93;;;6.90;92.00;;;;;;5105351;28;20107;-77
2022/04/02 10:43:51;;;;;;;5.22;1.17;;;7.00;91.90;;;;;;5116210;28;20478;-77
2022/04/02 10:46:21;;;;;;;3.88;1.08;;;7.00;91.50;;;;;;5116576;28;20043;-77
2022/04/02 10:48:59;;;;;;;3.63;0.88;;;6.90;91.00;;;;;;5116249;28;20504;-77
2022/04/02 10:51:27;;;;;;;5.15;0.93;;;7.00;91.10;;;;;;5116011;28;20498;-77
2022/04/02 10:54:03;;;;;;;5.22;0.85;;;7.00;90.80;;;;;;5116276;28;20390;-78
2022/04/02 10:56:55;;;;;;;3.22;1.10;;;7.30;91.10;;;;;;5099603;28;20046;-77
2022/04/02 10:59:22;;;;;;;5.22;1.10;;;7.60;91.20;;;;;;5112015;28;20184;-77
2022/04/02 11:01:53;;;;;;;5.47;1.27;;;7.60;90.60;;;;;;5099046;28;20055;-77
2022/04/02 11:04:26;;;;;;;3.25;0.90;;;7.70;90.60;;;;;;5116546;28;20390;-77
2022/04/02 11:06:52;;;;;;;4.53;1.00;;;7.60;89.90;;;;;;5116264;28;20088;-77
2022/04/02 11:09:36;;;;;;;2.78;1.00;;;8.00;90.50;;;;;;5115987;28;20087;-78
2022/04/02 11:12:17;;;;;;;2.30;1.10;;;8.30;90.10;;;;;;5115940;28;20047;-77
2022/04/02 11:14:49;;;;;;;5.05;1.10;;;8.80;90.30;;;;;;5116110;28;20049;-77
2022/04/02 11:17:35;;;;;;;2.90;1.02;;;9.20;88.90;;;;;;5115203;28;20520;-77
2022/04/02 11:20:18;;;;;;;4.10;1.27;;;9.60;89.20;;;;;;5116443;27;20371;-77
2022/04/02 11:22:52;;;;;;;3.35;1.10;;;9.60;88.20;;;;;;5119826;27;20051;-77
2022/04/02 11:25:31;;;;;;;4.75;0.93;;;9.30;88.40;;;;;;5120178;27;20051;-77
2022/04/02 11:28:17;;;;;;;4.35;1.08;;;9.20;89.00;;;;;;5119826;27;20082;-77
2022/04/02 11:30:59;;;;;;;5.47;1.00;;;9.00;89.40;;;;;;5119370;27;20474;-77
2022/04/02 11:33:25;;;;;;;2.85;0.73;;;8.80;88.40;;;;;;5119524;27;20566;-77
2022/04/02 11:35:52;;;;;;;3.75;1.10;;;8.70;88.40;;;;;;5119314;27;20043;-77
2022/04/02 11:38:22;;;;;;;4.82;1.02;;;8.50;89.00;;;;;;5119530;27;20092;-77
2022/04/02 11:41:06;;;;;;;5.25;1.40;;;8.40;89.60;;;;;;5119533;27;20053;-77
2022/04/02 11:43:36;;;;;;;2.75;1.10;;;8.10;90.30;;;;;;5119736;27;20082;-77
2022/04/02 11:46:08;;;;;;;2.58;0.80;;;7.80;90.50;;;;;;5119375;27;20477;-77
2022/04/02 11:48:37;;;;;;;5.43;1.20;;;7.90;91.20;;;;;;5118986;27;20390;-77
2022/04/02 11:51:20;;;;;;;2.60;1.10;;;7.90;91.10;;;;;;5119198;27;20047;-77
2022/04/02 11:53:46;;;;;;;9.73;1.20;;;7.90;91.00;;;;;;5119130;27;20134;-77
2022/04/02 11:56:29;;;;;;;6.78;1.13;;;7.90;91.20;;;;;;5119278;27;20055;-77
2022/04/02 11:59:05;;;;;;;3.22;1.20;;;7.50;90.80;;;;;;5119330;27;20047;-77
2022/04/02 12:01:48;;;;;;;2.75;1.27;;;7.50;91.10;;;;;;5118926;27;20051;-77
2022/04/02 12:04:20;;;;;;;2.75;1.15;;;7.60;91.30;;;;;;5119151;27;20055;-77
2022/04/02 12:06:47;;;;;;;4.43;1.33;;;7.90;91.20;;;;;;5118831;27;20076;-77
2022/04/02 12:09:14;;;;;;;3.22;1.02;;;8.00;91.10;;;;;;5118976;27;20047;-77
2022/04/02 12:11:43;;;;;;;2.60;1.10;;;8.20;90.90;;;;;;5118357;27;20035;-77
2022/04/02 12:14:10;;;;;;;4.57;1.17;;;8.20;90.30;;;;;;5118879;27;20091;-77
2022/04/02 12:16:38;;;;;;;2.28;0.95;;;8.20;89.00;;;;;;5119150;27;20059;-77
2022/04/02 12:19:09;;;;;;;3.30;1.40;;;8.50;88.60;;;;;;5118378;27;20039;-77
2022/04/02 12:21:40;;;;;;;2.78;0.63;;;9.20;88.50;;;;;;5118903;27;20054;-77
2022/04/02 12:24:06;;;;;;;3.33;0.93;;;9.70;86.00;;;;;;5118193;27;20051;-77
2022/04/02 12:26:31;;;;;;;3.42;0.82;;;9.90;86.20;;;;;;5118416;27;20399;-77
2022/04/02 12:29:00;;;;;;;5.25;0.98;;;10.20;87.50;;;;;;5118312;27;20099;-77
2022/04/02 12:31:27;;;;;;;4.47;0.90;;;10.40;87.20;;;;;;5117977;27;20051;-77
2022/04/02 12:33:54;;;;;;;3.90;0.98;;;10.20;87.00;;;;;;5118029;27;20039;-77
2022/04/02 12:36:43;;;;;;;3.63;0.93;;;10.50;87.80;;;;;;5118464;27;20130;-77
2022/04/02 12:39:10;;;;;;;2.63;0.55;;;11.00;87.90;;;;;;5118874;27;20047;-77
2022/04/02 12:41:48;;;;;;;3.25;0.80;;;11.30;84.30;;;;;;5118700;27;20077;-77
2022/04/02 12:44:19;;;;;;;2.38;0.80;;;11.70;83.20;;;;;;5118606;27;20040;-77
2022/04/02 12:46:45;;;;;;;4.63;0.52;;;11.80;80.90;;;;;;5118004;27;20057;-77
2022/04/02 12:49:35;;;;;;;5.85;0.88;;;11.80;81.70;;;;;;5117816;27;20043;-77
2022/04/02 12:52:17;;;;;;;3.28;1.33;;;11.50;80.90;;;;;;5118434;27;20047;-77
2022/04/02 12:54:52;;;;;;;3.63;1.10;;;11.30;82.90;;;;;;5117983;27;20043;-77
2022/04/02 12:57:18;;;;;;;4.15;0.77;;;11.50;82.40;;;;;;5118219;27;20047;-75
2022/04/02 12:59:52;;;;;;;6.38;1.13;;;11.50;81.00;;;;;;5118296;27;20043;-75
2022/04/02 13:02:20;;;;;;;2.75;1.00;;;11.20;82.00;;;;;;5120804;27;20493;-86
2022/04/02 13:04:53;;;;;;;2.15;0.90;;;10.50;81.10;;;;;;5101048;27;20088;-76
2022/04/02 13:07:23;;;;;;;2.83;0.90;;;9.80;82.80;;;;;;5118022;27;20073;-77
2022/04/02 13:09:53;;;;;;;3.15;0.70;;;9.80;82.80;;;;;;5117764;27;20158;-77
2022/04/02 13:12:23;;;;;;;4.00;1.23;;;10.20;83.10;;;;;;5100952;27;20079;-78
2022/04/02 13:15:01;;;;;;;4.47;1.17;;;10.70;81.30;;;;;;5117734;27;20043;-78
2022/04/02 13:20:36;;;;;;;2.35;0.88;;;10.40;78.30;;;;;;5117356;27;20588;-74